Time;durP1;ratioP1;P1;durP2;ratioP2;P2;SDS_P1;SDS_P2;PMS_P1;PMS_P2;Temp;Humidity;BMP_temperature;BMP_pressure;BME280_temperature;BME280_humidity;BME280_pressure;Samples;Min_cycle;Max_cycle;Signal;HPM_P1;HPM_P2
2022/01/10 00:00:51;;;;;;;33.72;15.55;;;;;;;4.67;48.85;97874.66;4475884;31;20147;-88
2022/01/10 00:03:16;;;;;;;32.47;16.00;;;;;;;4.73;48.17;97871.75;4503489;31;20455;-92
2022/01/10 00:05:42;;;;;;;33.60;15.60;;;;;;;4.72;48.17;97870.91;4503120;31;20184;-87
2022/01/10 00:08:08;;;;;;;34.22;15.23;;;;;;;4.58;47.83;97870.69;4503088;31;20118;-86
2022/01/10 00:10:33;;;;;;;30.65;13.95;;;;;;;4.61;47.28;97872.31;4503099;31;20463;-87
2022/01/10 00:12:59;;;;;;;34.83;14.87;;;;;;;4.68;46.52;97871.12;4502982;31;20130;-87
2022/01/10 00:15:25;;;;;;;37.25;17.40;;;;;;;4.65;45.89;97869.50;4488652;31;20389;-86
2022/01/10 00:17:50;;;;;;;37.17;17.42;;;;;;;4.57;47.02;97875.97;4503042;31;20100;-87
2022/01/10 00:20:17;;;;;;;40.12;17.77;;;;;;;4.61;47.65;97877.53;4502058;31;20079;-87
2022/01/10 00:22:47;;;;;;;36.78;17.60;;;;;;;4.59;47.92;97880.22;4503105;31;20119;-87
2022/01/10 00:25:14;;;;;;;36.88;17.23;;;;;;;4.58;48.56;97877.66;4489155;31;20857;-87
2022/01/10 00:27:40;;;;;;;36.77;18.50;;;;;;;4.56;48.75;97875.16;4488721;31;20092;-88
2022/01/10 00:30:06;;;;;;;38.83;17.60;;;;;;;4.50;49.02;97878.88;4502899;31;20083;-87
2022/01/10 00:32:31;;;;;;;40.40;17.55;;;;;;;4.56;48.97;97872.53;4488501;31;20100;-87
2022/01/10 00:34:57;;;;;;;37.28;18.15;;;;;;;4.54;48.95;97879.59;4502589;31;20084;-87
2022/01/10 00:37:22;;;;;;;38.50;17.45;;;;;;;4.56;48.98;97882.09;4488698;31;20479;-87
2022/01/10 00:39:49;;;;;;;41.20;17.48;;;;;;;4.50;48.93;97876.25;4502782;31;20080;-87
2022/01/10 00:42:15;;;;;;;36.35;16.90;;;;;;;4.52;48.41;97884.03;4502841;31;20374;-87
2022/01/10 00:44:46;;;;;;;32.10;15.90;;;;;;;4.52;47.75;97881.41;4502899;31;20118;-87
2022/01/10 00:47:11;;;;;;;35.08;16.12;;;;;;;4.55;47.72;97881.25;4502895;31;20106;-87
2022/01/10 00:49:37;;;;;;;33.55;15.50;;;;;;;4.56;47.65;97879.50;4503067;31;20064;-88
2022/01/10 00:52:04;;;;;;;35.88;15.40;;;;;;;4.55;47.14;97883.03;4503121;31;20142;-86
2022/01/10 00:54:29;;;;;;;33.07;15.90;;;;;;;4.49;46.87;97884.16;4503024;31;20096;-84
2022/01/10 00:56:55;;;;;;;31.90;15.05;;;;;;;4.51;46.61;97887.53;4503042;31;20118;-86
2022/01/10 00:59:20;;;;;;;34.70;15.32;;;;;;;4.43;46.50;97889.66;4502910;31;20140;-85
2022/01/10 01:01:46;;;;;;;33.00;14.30;;;;;;;4.43;46.68;97890.47;4503033;31;20405;-86
2022/01/10 01:04:11;;;;;;;35.17;15.85;;;;;;;4.42;46.89;97891.38;4502998;31;20110;-85
2022/01/10 01:06:37;;;;;;;33.28;14.13;;;;;;;4.48;46.53;97885.06;4502907;31;20079;-85
2022/01/10 01:09:07;;;;;;;33.95;14.18;;;;;;;4.46;46.30;97895.56;4502877;31;20132;-86
2022/01/10 01:14:10;;;;;;;27.65;12.85;;;;;;;4.46;45.53;97892.09;4488519;31;20147;-87
2022/01/10 01:24:31;;;;;;;24.30;11.40;;;;;;;4.37;44.20;97888.16;4490386;31;20282;-86
2022/01/10 01:26:57;;;;;;;26.35;12.52;;;;;;;4.39;44.44;97890.69;4502587;31;20440;-85
2022/01/10 01:29:25;;;;;;;28.10;11.77;;;;;;;4.41;44.10;97888.88;4502417;31;20147;-85
2022/01/10 01:31:50;;;;;;;;;;;;;;;4.36;44.00;97894.25;4502531;31;20719;-85
2022/01/10 01:34:17;;;;;;;27.10;12.13;;;;;;;4.17;43.86;97894.22;4487768;31;20058;-87
2022/01/10 01:36:47;;;;;;;26.65;10.68;;;;;;;4.20;43.39;97895.88;4474882;31;20096;-87
2022/01/10 01:39:19;;;;;;;29.92;12.35;;;;;;;4.30;43.77;97891.94;4488295;31;20374;-87
2022/01/10 01:41:46;;;;;;;29.55;13.00;;;;;;;4.27;43.81;97897.28;4502295;31;20197;-85
2022/01/10 01:44:12;;;;;;;31.23;13.48;;;;;;;4.34;42.68;97901.31;4487957;31;20088;-86
2022/01/10 01:46:38;;;;;;;29.65;13.10;;;;;;;4.36;42.39;97903.84;4502034;31;20113;-86
2022/01/10 01:49:06;;;;;;;34.83;15.30;;;;;;;4.18;43.34;97908.12;4487796;31;20076;-85
2022/01/10 01:51:31;;;;;;;32.13;14.93;;;;;;;4.16;43.66;97913.37;4502133;31;20237;-85
2022/01/10 01:53:57;;;;;;;33.85;14.80;;;;;;;4.14;44.15;97910.00;4502052;31;20116;-86
2022/01/10 01:56:23;;;;;;;40.12;17.23;;;;;;;4.07;44.32;97909.41;4487636;31;20108;-86
2022/01/10 01:58:51;;;;;;;36.72;18.10;;;;;;;4.17;44.85;97902.03;4501951;31;20072;-86
2022/01/10 02:01:17;;;;;;;35.95;16.77;;;;;;;4.19;44.91;97907.19;4501873;31;20084;-86
2022/01/10 02:03:43;;;;;;;38.03;17.10;;;;;;;4.21;44.84;97907.97;4501942;31;20118;-86
2022/01/10 02:06:09;;;;;;;33.67;15.70;;;;;;;4.27;44.97;97903.34;4501866;31;20510;-85
2022/01/10 02:08:35;;;;;;;36.70;16.37;;;;;;;4.31;45.02;97899.69;4501777;31;20076;-85
2022/01/10 02:11:06;;;;;;;39.33;17.25;;;;;;;4.28;45.05;97906.78;4487554;31;20115;-85
2022/01/10 02:13:31;;;;;;;33.55;15.63;;;;;;;4.18;45.13;97913.31;4501944;31;20110;-86
2022/01/10 02:16:02;;;;;;;35.78;16.08;;;;;;;4.31;44.90;97909.28;4501904;31;20099;-86
2022/01/10 02:18:28;;;;;;;37.63;16.77;;;;;;;4.36;44.81;97903.84;4502102;31;20430;-86
2022/01/10 02:20:57;;;;;;;38.22;16.67;;;;;;;4.32;44.60;97909.19;4487251;31;20122;-86
2022/01/10 02:23:23;;;;;;;40.38;17.85;;;;;;;4.30;44.73;97903.19;4487463;31;20165;-86
2022/01/10 02:25:49;;;;;;;40.05;19.87;;;;;;;4.23;45.15;97900.91;4501598;31;20104;-86
2022/01/10 02:28:14;;;;;;;39.40;18.90;;;;;;;4.26;45.25;97904.25;4501608;31;20080;-86
2022/01/10 02:30:40;;;;;;;40.50;16.90;;;;;;;4.33;45.33;97908.28;4487156;31;20084;-87
2022/01/10 02:33:06;;;;;;;41.53;18.75;;;;;;;4.40;45.51;97903.66;4501465;31;20111;-86
2022/01/10 02:35:38;;;;;;;36.78;17.55;;;;;;;4.40;45.36;97902.81;4487001;31;20099;-86
2022/01/10 02:38:04;;;;;;;39.15;18.17;;;;;;;4.46;45.33;97898.19;4487601;31;20068;-86
2022/01/10 02:40:31;;;;;;;40.08;18.27;;;;;;;4.42;45.47;97903.59;4501384;31;20114;-86
2022/01/10 02:42:57;;;;;;;37.65;18.00;;;;;;;4.53;45.40;97901.34;4488114;31;20104;-86
2022/01/10 02:45:23;;;;;;;42.72;19.90;;;;;;;4.57;45.32;97900.28;4489400;31;20096;-86
2022/01/10 02:47:49;;;;;;;40.80;18.85;;;;;;;4.51;45.41;97908.41;4503593;31;20601;-84
2022/01/10 02:50:16;;;;;;;39.40;18.62;;;;;;;4.52;45.45;97905.72;4489331;31;20101;-86
2022/01/10 02:52:42;;;;;;;44.13;20.65;;;;;;;4.61;45.36;97908.84;4489414;31;20122;-87
2022/01/10 02:55:09;;;;;;;44.05;19.30;;;;;;;4.60;45.49;97905.41;4503539;31;20076;-87
2022/01/10 02:57:35;;;;;;;46.28;20.00;;;;;;;4.63;45.31;97905.22;4489173;31;20439;-87
2022/01/10 03:00:08;;;;;;;42.80;20.33;;;;;;;4.61;45.35;97907.06;4503609;31;20084;-86
2022/01/10 03:02:34;;;;;;;44.95;20.92;;;;;;;4.60;45.41;97900.19;4503570;31;20103;-87
2022/01/10 03:05:00;;;;;;;42.42;20.40;;;;;;;4.60;45.30;97910.59;4503711;31;20400;-87
2022/01/10 03:07:27;;;;;;;45.63;21.15;;;;;;;4.61;45.14;97914.91;4503751;31;20111;-87
2022/01/10 03:09:53;;;;;;;45.60;20.70;;;;;;;4.51;45.44;97919.66;4489347;31;20151;-87
2022/01/10 03:12:20;;;;;;;43.58;20.33;;;;;;;4.38;45.87;97917.66;4503782;31;20175;-86
2022/01/10 03:14:45;;;;;;;42.28;20.55;;;;;;;4.41;45.92;97917.56;4489397;31;20345;-87
2022/01/10 03:17:11;;;;;;;43.00;20.65;;;;;;;4.32;46.11;97919.63;4503726;31;20115;-86
2022/01/10 03:19:38;;;;;;;40.55;20.42;;;;;;;4.44;46.07;97922.63;4503760;31;20119;-86
2022/01/10 03:22:04;;;;;;;43.45;20.20;;;;;;;4.48;46.08;97924.16;4489239;31;20118;-86
2022/01/10 03:24:30;;;;;;;42.08;20.05;;;;;;;4.54;46.06;97926.53;4503744;31;20095;-86
2022/01/10 03:26:55;;;;;;;44.22;21.85;;;;;;;4.57;45.94;97928.16;4503431;31;20076;-86
2022/01/10 03:29:21;;;;;;;47.33;21.77;;;;;;;4.56;45.97;97934.25;4503715;31;20080;-86
2022/01/10 03:31:46;;;;;;;45.88;22.40;;;;;;;4.49;46.26;97938.91;4503300;31;20088;-86
2022/01/10 03:34:13;;;;;;;47.85;22.25;;;;;;;4.41;46.54;97933.19;4475750;31;20542;-86
2022/01/10 03:36:39;;;;;;;42.62;20.52;;;;;;;4.45;46.58;97935.59;4503149;31;20550;-86
2022/01/10 03:39:05;;;;;;;45.15;19.90;;;;;;;4.48;46.57;97935.47;4489002;31;20112;-86
2022/01/10 03:41:30;;;;;;;43.40;21.58;;;;;;;4.50;46.31;97935.37;4503434;31;20084;-86
2022/01/10 03:43:56;;;;;;;43.03;21.33;;;;;;;4.51;46.38;97930.09;4503192;31;20112;-86
2022/01/10 03:46:21;;;;;;;41.13;19.55;;;;;;;4.47;46.54;97938.97;4488821;31;20102;-85
2022/01/10 03:48:47;;;;;;;46.03;20.77;;;;;;;4.57;46.26;97946.41;4488864;31;20101;-85
2022/01/10 03:51:12;;;;;;;43.33;19.42;;;;;;;4.60;45.98;97944.53;4503243;31;20150;-86
2022/01/10 03:53:38;;;;;;;45.35;21.65;;;;;;;4.64;45.78;97953.91;4503228;31;20084;-86
2022/01/10 03:56:03;;;;;;;45.50;21.17;;;;;;;4.61;45.83;97958.41;4488720;31;20084;-86
2022/01/10 03:58:29;;;;;;;45.47;20.42;;;;;;;4.60;46.08;97964.53;4503275;31;20119;-86
2022/01/10 04:00:54;;;;;;;42.28;21.73;;;;;;;4.66;46.15;97962.50;4503118;31;20088;-86
2022/01/10 04:03:20;;;;;;;49.42;22.33;;;;;;;4.50;46.45;97967.53;4503140;31;20157;-86
2022/01/10 04:05:45;;;;;;;47.80;22.20;;;;;;;4.56;46.50;97963.84;4503072;31;20068;-86
2022/01/10 04:08:12;;;;;;;44.83;21.33;;;;;;;4.69;46.43;97972.81;4503033;31;20092;-86
2022/01/10 04:10:38;;;;;;;47.03;21.25;;;;;;;4.74;46.13;97972.59;4488793;31;20172;-86
2022/01/10 04:13:03;;;;;;;46.13;21.95;;;;;;;4.67;46.21;97981.59;4488784;31;20093;-86
2022/01/10 04:15:29;;;;;;;44.30;20.98;;;;;;;4.62;46.64;97979.22;4502960;31;20075;-86
2022/01/10 04:17:56;;;;;;;45.20;20.55;;;;;;;4.69;46.67;97980.66;4503164;31;20088;-85
2022/01/10 04:20:23;;;;;;;44.20;21.98;;;;;;;4.68;46.68;97983.31;4503127;31;20119;-86
2022/01/10 04:22:48;;;;;;;43.08;22.40;;;;;;;4.66;46.91;97974.72;4503103;31;20140;-86
2022/01/10 04:25:14;;;;;;;43.05;21.40;;;;;;;4.62;47.13;97988.81;4502989;31;20084;-85
2022/01/10 04:27:39;;;;;;;41.83;20.48;;;;;;;4.67;47.16;97984.22;4502998;31;20141;-86
2022/01/10 04:30:05;;;;;;;44.92;20.88;;;;;;;4.67;47.16;97987.66;4502930;31;20092;-85
2022/01/10 04:32:32;;;;;;;41.28;18.85;;;;;;;4.63;46.94;97990.47;4502976;31;20084;-86
2022/01/10 04:34:58;;;;;;;37.83;18.90;;;;;;;4.62;46.84;97989.66;4488498;31;20068;-85
2022/01/10 04:37:24;;;;;;;38.90;18.80;;;;;;;4.66;46.41;97988.59;4503021;31;20108;-86
2022/01/10 04:39:49;;;;;;;39.78;18.55;;;;;;;4.69;46.25;97993.69;4502910;31;20087;-86
2022/01/10 04:42:15;;;;;;;37.15;17.83;;;;;;;4.76;46.17;97989.03;4502973;31;20084;-86
2022/01/10 04:44:41;;;;;;;38.78;18.98;;;;;;;4.68;45.98;97988.53;4502908;31;20115;-86
2022/01/10 04:47:07;;;;;;;39.88;18.92;;;;;;;4.73;46.02;97997.00;4488788;31;20205;-86
2022/01/10 04:49:51;;;;;;;37.20;17.42;;;;;;;4.72;45.99;98003.97;4502919;31;20119;-85
2022/01/10 04:52:16;;;;;;;36.25;17.40;;;;;;;4.83;45.88;98003.53;4502956;31;20140;-86
2022/01/10 04:54:42;;;;;;;36.13;16.20;;;;;;;4.84;45.59;98006.97;4502774;31;20103;-86
2022/01/10 04:57:07;;;;;;;37.78;16.85;;;;;;;4.86;45.76;98007.75;4502830;31;20367;-86
2022/01/10 04:59:33;;;;;;;38.95;16.23;;;;;;;4.82;46.01;98009.63;4502842;31;20103;-86
2022/01/10 05:01:58;;;;;;;35.80;17.02;;;;;;;4.87;45.98;98020.72;4488348;31;20144;-86
2022/01/10 05:04:23;;;;;;;33.35;16.27;;;;;;;4.80;45.97;98013.25;4502638;31;20084;-86
2022/01/10 05:06:49;;;;;;;35.72;17.17;;;;;;;4.89;45.98;98012.84;4487689;31;20116;-86
2022/01/10 05:09:14;;;;;;;33.85;15.60;;;;;;;4.90;46.06;98019.75;4502642;31;20123;-86
2022/01/10 05:11:40;;;;;;;35.35;17.42;;;;;;;4.92;46.01;98016.16;4502596;31;20100;-86
2022/01/10 05:14:05;;;;;;;36.20;16.42;;;;;;;4.90;45.54;98022.34;4502632;31;20104;-86
2022/01/10 05:16:31;;;;;;;36.15;16.40;;;;;;;4.94;45.57;98023.91;4502501;31;20081;-86
2022/01/10 05:18:57;;;;;;;34.67;15.55;;;;;;;4.90;45.49;98023.19;4502515;31;20122;-86
2022/01/10 05:21:22;;;;;;;34.42;16.10;;;;;;;4.83;45.48;98029.63;4502396;31;20138;-86
2022/01/10 05:23:48;;;;;;;38.30;16.75;;;;;;;4.75;45.67;98030.84;4502502;31;20084;-86
2022/01/10 05:26:13;;;;;;;33.50;16.50;;;;;;;4.78;45.74;98034.19;4502471;31;20115;-86
2022/01/10 05:28:38;;;;;;;35.42;17.02;;;;;;;4.67;45.85;98023.34;4502521;31;20080;-87
2022/01/10 05:31:04;;;;;;;34.53;16.50;;;;;;;4.78;45.66;98028.13;4502519;31;20072;-86
2022/01/10 05:33:29;;;;;;;37.00;16.05;;;;;;;4.80;45.92;98027.13;4502370;31;20114;-86
2022/01/10 05:35:55;;;;;;;35.75;17.60;;;;;;;4.77;46.00;98035.09;4501970;31;20137;-86
2022/01/10 05:38:20;;;;;;;38.25;18.65;;;;;;;4.77;45.67;98032.50;4487873;31;20100;-86
2022/01/10 05:40:46;;;;;;;35.83;18.48;;;;;;;4.62;46.08;98033.16;4502355;31;20128;-86
2022/01/10 05:43:11;;;;;;;35.05;17.87;;;;;;;4.67;46.06;98037.22;4502217;31;20099;-86
2022/01/10 05:45:37;;;;;;;39.40;18.23;;;;;;;4.76;45.94;98037.78;4502209;31;20123;-86
2022/01/10 05:48:08;;;;;;;37.30;17.70;;;;;;;4.66;46.12;98045.16;4502170;31;20122;-87
2022/01/10 05:50:35;;;;;;;37.47;18.45;;;;;;;4.66;46.12;98045.16;4502157;31;20076;-86
2022/01/10 05:53:02;;;;;;;38.47;17.42;;;;;;;4.66;46.27;98046.00;4502149;31;20398;-86
2022/01/10 05:55:27;;;;;;;39.35;18.80;;;;;;;4.58;46.69;98042.00;4487641;31;20127;-86
2022/01/10 05:57:53;;;;;;;37.58;16.95;;;;;;;4.64;46.46;98046.97;4502006;31;20089;-86
2022/01/10 06:00:19;;;;;;;36.38;17.52;;;;;;;4.49;46.71;98048.47;4487640;31;20132;-85
2022/01/10 06:02:45;;;;;;;38.15;16.92;;;;;;;4.41;47.14;98051.38;4487455;31;20110;-84
2022/01/10 06:05:10;;;;;;;39.42;16.77;;;;;;;4.44;47.05;98050.41;4487631;31;20123;-85
2022/01/10 06:07:36;;;;;;;46.22;19.33;;;;;;;4.52;47.00;98051.78;4501947;31;20118;-86
2022/01/10 06:10:04;;;;;;;40.38;18.98;;;;;;;4.46;47.44;98059.00;4487540;31;20125;-85
2022/01/10 06:12:29;;;;;;;39.15;18.42;;;;;;;4.34;47.71;98055.16;4501815;31;20106;-86
2022/01/10 06:14:55;;;;;;;39.72;19.85;;;;;;;4.38;47.72;98061.94;4501990;31;20092;-86
2022/01/10 06:17:20;;;;;;;48.63;21.37;;;;;;;4.22;48.29;98063.47;4502643;31;20363;-86
2022/01/10 06:19:46;;;;;;;42.92;20.23;;;;;;;4.28;48.21;98069.28;4504132;31;20105;-86
2022/01/10 06:22:11;;;;;;;45.95;20.90;;;;;;;4.30;48.21;98062.25;4504223;31;20076;-86
2022/01/10 06:24:37;;;;;;;41.78;19.37;;;;;;;4.27;48.55;98071.97;4504074;31;20092;-86
2022/01/10 06:27:02;;;;;;;43.75;21.23;;;;;;;4.37;48.35;98073.28;4489848;31;20375;-85
2022/01/10 06:29:28;;;;;;;41.75;20.35;;;;;;;4.47;48.00;98077.22;4504081;31;20640;-86
2022/01/10 06:31:53;;;;;;;42.20;19.65;;;;;;;4.31;48.29;98081.37;4504042;31;20098;-88
2022/01/10 06:34:19;;;;;;;43.17;19.50;;;;;;;4.41;47.80;98087.06;4503956;31;20088;-89
2022/01/10 06:36:45;;;;;;;41.08;19.20;;;;;;;4.34;47.88;98094.25;4503938;31;20088;-88
2022/01/10 06:39:11;;;;;;;43.28;19.45;;;;;;;4.33;47.94;98096.03;4504147;31;20080;-89
2022/01/10 06:41:36;;;;;;;40.15;20.27;;;;;;;4.23;48.34;98104.28;4503937;31;20148;-88
2022/01/10 06:44:02;;;;;;;48.75;20.48;;;;;;;4.10;48.81;98103.94;4503874;31;20367;-87
2022/01/10 06:46:28;;;;;;;42.90;21.00;;;;;;;3.93;49.33;98102.81;4476512;31;20096;-86
2022/01/10 06:48:53;;;;;;;44.40;20.25;;;;;;;3.74;49.82;98107.88;4503967;31;20111;-87
2022/01/10 06:51:18;;;;;;;44.70;21.37;;;;;;;3.98;49.43;98110.47;4503900;31;20083;-88
2022/01/10 06:53:44;;;;;;;57.70;22.77;;;;;;;4.09;49.30;98105.66;4489533;31;20379;-89
2022/01/10 06:56:09;;;;;;;42.72;20.17;;;;;;;4.02;49.52;98117.25;4503841;31;20118;-88
2022/01/10 06:58:35;;;;;;;46.92;21.83;;;;;;;4.05;49.41;98111.06;4489640;31;20088;-88
2022/01/10 07:01:00;;;;;;;42.83;19.70;;;;;;;3.99;49.56;98119.13;4503691;31;20122;-89
2022/01/10 07:03:26;;;;;;;44.03;21.62;;;;;;;4.09;49.29;98126.50;4503934;31;20416;-88
2022/01/10 07:05:51;;;;;;;46.37;21.25;;;;;;;3.94;49.65;98125.37;4503537;31;20084;-88
2022/01/10 07:08:17;;;;;;;47.05;22.27;;;;;;;3.96;49.60;98127.94;4503656;31;20106;-89
2022/01/10 07:10:42;;;;;;;49.25;23.48;;;;;;;3.99;49.67;98125.19;4503505;31;20130;-90
2022/01/10 07:13:08;;;;;;;46.70;23.20;;;;;;;3.99;49.54;98129.56;4503548;31;20119;-86
2022/01/10 07:15:33;;;;;;;45.45;21.83;;;;;;;4.05;49.32;98137.12;4489377;31;20088;-84
2022/01/10 07:17:58;;;;;;;42.30;20.80;;;;;;;4.08;49.24;98135.25;4487789;32;20189;-86
2022/01/10 07:20:24;;;;;;;48.25;22.27;;;;;;;4.04;49.23;98138.06;4473468;32;20115;-89
2022/01/10 07:22:49;;;;;;;56.47;24.05;;;;;;;4.20;49.03;98146.12;4487565;32;20154;-87
2022/01/10 07:25:15;;;;;;;50.75;22.92;;;;;;;4.07;49.28;98143.97;4487558;32;20093;-82
2022/01/10 07:27:40;;;;;;;50.80;23.15;;;;;;;4.18;49.30;98143.56;4487360;32;20092;-89
2022/01/10 07:30:06;;;;;;;48.00;23.27;;;;;;;4.23;49.01;98148.59;4486710;31;20356;-86
2022/01/10 07:32:32;;;;;;;48.25;22.85;;;;;;;4.27;49.04;98147.59;4479795;31;20140;-83
2022/01/10 07:34:57;;;;;;;44.15;22.65;;;;;;;4.31;48.99;98162.19;4492796;31;20472;-87
2022/01/10 07:37:23;;;;;;;45.80;23.35;;;;;;;4.39;48.88;98154.91;4481538;32;20112;-86
2022/01/10 07:39:48;;;;;;;46.40;22.02;;;;;;;4.49;48.79;98166.66;4472425;32;20110;-86
2022/01/10 07:42:14;;;;;;;45.45;22.15;;;;;;;4.56;48.94;98162.06;4502465;31;20471;-85
2022/01/10 07:44:39;;;;;;;48.70;22.48;;;;;;;4.70;48.27;98162.34;4503638;31;20097;-86
2022/01/10 07:47:05;;;;;;;52.25;23.50;;;;;;;4.63;48.33;98168.72;4503557;31;20092;-87
2022/01/10 07:49:31;;;;;;;47.17;23.85;;;;;;;4.69;48.04;98171.09;4503121;31;20493;-82
2022/01/10 07:51:57;;;;;;;48.85;23.67;;;;;;;4.62;48.09;98172.25;4502686;31;20158;-81
2022/01/10 07:54:24;;;;;;;45.88;21.98;;;;;;;4.59;48.34;98172.37;4503055;31;20639;-82
2022/01/10 07:56:50;;;;;;;46.20;21.98;;;;;;;4.65;47.97;98173.88;4502824;31;20482;-82
2022/01/10 07:59:15;;;;;;;51.03;22.10;;;;;;;4.66;47.80;98168.59;4502784;31;20099;-82
2022/01/10 08:01:41;;;;;;;45.33;21.05;;;;;;;4.59;48.01;98179.34;4488570;31;20150;-82
2022/01/10 08:04:06;;;;;;;44.17;21.37;;;;;;;4.33;48.58;98182.06;4502901;31;20151;-82
2022/01/10 08:06:32;;;;;;;48.53;21.20;;;;;;;4.53;48.12;98176.06;4502791;31;20128;-83
2022/01/10 08:08:57;;;;;;;51.37;23.17;;;;;;;4.32;48.50;98180.37;4502921;31;20139;-82
2022/01/10 08:11:26;;;;;;;49.58;22.75;;;;;;;4.47;48.43;98185.91;4488416;31;20426;-82
2022/01/10 08:13:52;;;;;;;47.90;22.80;;;;;;;4.53;48.22;98186.50;4488087;31;20589;-83
2022/01/10 08:16:17;;;;;;;46.90;21.23;;;;;;;4.35;48.70;98192.47;4500865;31;20072;-80
2022/01/10 08:18:43;;;;;;;48.38;23.48;;;;;;;4.40;48.74;98184.44;4487905;31;20477;-81
2022/01/10 08:21:08;;;;;;;47.70;22.50;;;;;;;4.29;49.02;98185.72;4502203;31;20371;-81
2022/01/10 08:23:34;;;;;;;47.92;22.87;;;;;;;4.21;49.32;98189.50;4487898;31;20164;-81
2022/01/10 08:25:59;;;;;;;49.03;22.33;;;;;;;4.33;49.03;98187.28;4487748;31;20100;-81
2022/01/10 08:28:25;;;;;;;48.03;22.20;;;;;;;4.45;48.94;98188.56;4502696;31;20429;-81
2022/01/10 08:30:50;;;;;;;47.97;22.48;;;;;;;4.53;48.91;98196.94;4488765;31;20096;-81
2022/01/10 08:33:16;;;;;;;43.13;20.52;;;;;;;4.60;48.66;98186.28;4488630;31;20360;-81
2022/01/10 08:35:42;;;;;;;42.42;20.40;;;;;;;4.77;48.24;98196.00;4488361;31;20170;-81
2022/01/10 08:38:07;;;;;;;48.75;22.33;;;;;;;4.73;48.13;98193.53;4502958;31;20101;-81
2022/01/10 08:40:32;;;;;;;43.90;19.83;;;;;;;4.83;47.84;98196.63;4487639;31;20131;-81
2022/01/10 08:43:00;;;;;;;42.92;20.55;;;;;;;4.99;47.58;98196.00;4502910;31;20463;-81
2022/01/10 08:45:26;;;;;;;38.55;19.60;;;;;;;5.13;46.80;98198.88;4481265;31;20088;-81
2022/01/10 08:47:51;;;;;;;36.38;17.02;;;;;;;5.19;46.82;98203.00;4472672;32;20107;-81
2022/01/10 08:50:17;;;;;;;40.58;18.52;;;;;;;5.21;46.33;98207.22;4487132;32;20088;-82
2022/01/10 08:52:42;;;;;;;38.95;17.92;;;;;;;5.29;46.14;98202.53;4487082;32;20098;-81
2022/01/10 08:55:09;;;;;;;38.88;18.27;;;;;;;5.23;46.32;98209.78;4472646;32;20092;-81
2022/01/10 08:57:35;;;;;;;36.63;16.07;;;;;;;5.44;45.83;98208.00;4486924;32;20084;-81
2022/01/10 09:00:04;;;;;;;39.03;17.60;;;;;;;5.41;45.81;98210.75;4487011;32;20131;-80
2022/01/10 09:02:29;;;;;;;;;;;;;;;5.21;46.16;98211.59;4487207;32;20100;-83
2022/01/10 09:04:54;;;;;;;37.67;17.98;;;;;;;5.30;45.86;98217.28;4472769;32;19994;-81
2022/01/10 09:07:20;;;;;;;37.08;16.80;;;;;;;5.40;45.55;98211.69;4486842;32;20106;-82
2022/01/10 09:09:45;;;;;;;35.72;17.17;;;;;;;5.44;45.51;98227.13;4493185;31;20474;-82
2022/01/10 09:12:11;;;;;;;35.97;17.42;;;;;;;5.54;45.54;98224.13;4488248;31;20466;-82
2022/01/10 09:14:37;;;;;;;33.50;15.77;;;;;;;5.60;45.42;98222.12;4502622;31;20123;-83
2022/01/10 09:17:03;;;;;;;29.55;12.95;;;;;;;5.65;45.27;98222.75;4488329;31;20079;-83
2022/01/10 09:19:29;;;;;;;30.70;14.48;;;;;;;5.74;44.71;98228.50;4484101;32;20127;-83
2022/01/10 09:21:54;;;;;;;29.05;13.02;;;;;;;5.34;45.62;98225.84;4486686;32;20135;-83
2022/01/10 09:24:20;;;;;;;26.45;12.88;;;;;;;5.27;45.53;98230.50;4486782;32;20128;-83
2022/01/10 09:26:45;;;;;;;29.33;12.65;;;;;;;5.49;45.13;98232.19;4486715;32;20088;-83
2022/01/10 09:29:11;;;;;;;29.70;13.25;;;;;;;5.65;45.09;98227.16;4486706;32;20089;-83
2022/01/10 09:31:36;;;;;;;30.25;13.65;;;;;;;5.76;44.94;98226.69;4472300;32;20104;-83
2022/01/10 09:34:02;;;;;;;26.30;12.65;;;;;;;5.86;44.71;98218.34;4486541;32;20416;-82
2022/01/10 09:36:29;;;;;;;25.98;11.05;;;;;;;5.93;44.30;98226.78;4484798;31;20463;-82
2022/01/10 09:38:57;;;;;;;25.90;11.40;;;;;;;5.94;44.30;98230.25;4471965;32;20123;-82
2022/01/10 09:41:23;;;;;;;29.40;11.98;;;;;;;5.91;44.05;98226.00;4472427;32;20104;-81
2022/01/10 09:43:56;;;;;;;30.48;12.30;;;;;;;6.07;43.79;98228.81;4486421;32;20454;-80
2022/01/10 09:46:22;;;;;;;26.92;11.65;;;;;;;5.87;44.06;98225.28;4486272;32;20103;-82
2022/01/10 09:48:48;;;;;;;26.05;11.27;;;;;;;5.72;44.42;98234.66;4486209;32;20089;-82
2022/01/10 09:51:16;;;;;;;28.17;13.45;;;;;;;5.60;44.53;98229.97;4486794;32;20458;-82
2022/01/10 09:53:41;;;;;;;;;;;;;;;5.60;44.81;98234.31;4474497;32;20088;-82
2022/01/10 09:56:06;;;;;;;26.05;11.70;;;;;;;5.65;44.81;98230.59;4474151;32;19963;-82
2022/01/10 09:58:32;;;;;;;26.75;11.43;;;;;;;5.62;44.79;98229.88;4473840;32;20118;-81
2022/01/10 10:00:59;;;;;;;27.40;11.80;;;;;;;5.60;44.90;98235.19;4488193;32;20084;-81
2022/01/10 10:03:25;;;;;;;29.48;13.20;;;;;;;5.41;45.46;98236.88;4460843;32;20092;-81
2022/01/10 10:05:54;;;;;;;28.80;12.48;;;;;;;5.54;45.37;98237.19;4487704;32;20072;-83
2022/01/10 10:08:21;;;;;;;29.27;12.40;;;;;;;5.61;45.28;98234.25;4473919;32;20126;-82
2022/01/10 10:10:48;;;;;;;27.92;12.45;;;;;;;5.71;45.18;98230.31;4488210;32;20140;-81
2022/01/10 10:13:14;;;;;;;27.48;12.35;;;;;;;5.94;44.64;98225.84;4474019;32;20175;-81
2022/01/10 10:15:41;;;;;;;28.80;11.82;;;;;;;5.99;44.63;98225.66;4473801;32;20431;-81
2022/01/10 10:18:08;;;;;;;27.02;11.57;;;;;;;6.01;44.62;98224.69;4473855;32;20103;-81
2022/01/10 10:20:34;;;;;;;30.23;12.90;;;;;;;6.13;44.46;98227.69;4488116;32;20523;-82
2022/01/10 10:23:03;;;;;;;25.27;11.30;;;;;;;6.09;44.44;98226.97;4487909;32;20155;-82
2022/01/10 10:25:28;;;;;;;21.90;9.35;;;;;;;6.05;44.83;98230.66;4474037;32;20084;-81
2022/01/10 10:27:56;;;;;;;25.17;10.73;;;;;;;6.01;44.77;98229.94;4473992;32;20165;-82
2022/01/10 10:30:27;;;;;;;23.17;10.60;;;;;;;6.03;44.81;98225.47;4488295;32;20087;-82
2022/01/10 10:33:19;;;;;;;26.10;10.07;;;;;;;5.88;45.16;98237.44;4488324;32;20069;-82
2022/01/10 10:35:54;;;;;;;25.55;10.18;;;;;;;5.94;44.90;98238.94;4498161;31;20080;-82
2022/01/10 10:38:19;;;;;;;25.70;10.18;;;;;;;5.83;44.92;98236.81;4489711;31;20116;-82
2022/01/10 10:40:45;;;;;;;22.37;10.02;;;;;;;5.80;45.04;98251.78;4498463;31;20092;-81
2022/01/10 10:43:11;;;;;;;24.42;8.88;;;;;;;5.80;44.80;98243.94;4491904;31;20096;-82
2022/01/10 10:45:37;;;;;;;26.27;10.32;;;;;;;5.50;44.89;98242.59;4487963;32;20375;-81
2022/01/10 10:48:08;;;;;;;29.00;12.02;;;;;;;5.72;44.80;98236.41;4473796;32;20101;-82
2022/01/10 10:50:41;;;;;;;24.70;10.32;;;;;;;5.76;44.93;98237.97;4473943;32;20488;-83
2022/01/10 10:53:09;;;;;;;23.05;9.70;;;;;;;5.78;44.41;98246.59;4460857;32;20114;-86
2022/01/10 10:55:38;;;;;;;24.65;10.48;;;;;;;5.90;43.57;98242.59;4488014;32;20147;-87
2022/01/10 10:58:03;;;;;;;27.05;11.25;;;;;;;6.03;43.56;98237.72;4473982;32;20177;-87
2022/01/10 11:00:29;;;;;;;27.25;11.85;;;;;;;6.00;43.74;98233.44;4473811;32;20101;-87
2022/01/10 11:02:54;;;;;;;26.83;11.40;;;;;;;6.17;43.50;98240.53;4487518;32;20084;-87
2022/01/10 11:05:20;;;;;;;23.65;11.27;;;;;;;6.07;43.03;98240.09;4488016;32;20140;-90
2022/01/10 11:07:45;;;;;;;21.77;9.07;;;;;;;6.17;43.02;98240.53;4487956;32;20096;-87
2022/01/10 11:10:11;;;;;;;19.48;8.43;;;;;;;6.14;41.84;98242.44;4473735;32;20105;-88
2022/01/10 11:12:40;;;;;;;18.70;8.02;;;;;;;6.29;41.16;98239.13;4473750;32;20119;-91
2022/01/10 11:15:07;;;;;;;23.65;9.63;;;;;;;6.24;40.98;98247.19;4473672;32;20095;-85
2022/01/10 11:17:33;;;;;;;23.33;9.15;;;;;;;6.24;41.19;98244.56;4473204;32;20104;-87
2022/01/10 11:20:12;;;;;;;22.17;9.20;;;;;;;6.28;41.19;98246.13;4473354;32;20135;-86
2022/01/10 11:22:42;;;;;;;20.55;8.52;;;;;;;6.18;41.25;98244.00;4487768;32;20080;-88
2022/01/10 11:25:25;;;;;;;18.00;7.47;;;;;;;6.28;40.32;98250.53;4473372;32;20088;-87
2022/01/10 11:27:53;;;;;;;19.42;7.15;;;;;;;6.28;39.97;98248.75;4487603;32;20408;-90
2022/01/10 11:30:24;;;;;;;19.87;7.68;;;;;;;6.23;39.71;98252.50;4473375;32;20104;-90
2022/01/10 11:32:54;;;;;;;17.95;7.00;;;;;;;6.30;39.90;98249.53;4487721;32;20111;-88